sensor_id;sensor_type;location;lat;lon;timestamp;P1;durP1;ratioP1;P2;durP2;ratioP2
35602;SDS011;21725;50.836;4.368;2023-03-01T00:00:28;12.48;;;6.88;;
35602;SDS011;21725;50.836;4.368;2023-03-01T00:03:29;12.10;;;7.40;;
35602;SDS011;21725;50.836;4.368;2023-03-01T00:06:30;10.35;;;6.90;;
35602;SDS011;21725;50.836;4.368;2023-03-01T00:09:30;11.60;;;6.85;;
35602;SDS011;21725;50.836;4.368;2023-03-01T00:12:31;11.07;;;6.13;;
35602;SDS011;21725;50.836;4.368;2023-03-01T00:15:32;10.48;;;6.80;;
35602;SDS011;21725;50.836;4.368;2023-03-01T00:18:34;11.82;;;7.43;;
35602;SDS011;21725;50.836;4.368;2023-03-01T00:21:35;9.32;;;6.45;;
35602;SDS011;21725;50.836;4.368;2023-03-01T00:24:36;9.18;;;6.68;;
35602;SDS011;21725;50.836;4.368;2023-03-01T00:27:37;9.38;;;6.85;;
35602;SDS011;21725;50.836;4.368;2023-03-01T00:30:37;11.48;;;7.35;;
35602;SDS011;21725;50.836;4.368;2023-03-01T00:33:38;13.32;;;7.00;;
35602;SDS011;21725;50.836;4.368;2023-03-01T00:36:39;12.25;;;7.43;;
35602;SDS011;21725;50.836;4.368;2023-03-01T00:39:40;8.35;;;6.20;;
35602;SDS011;21725;50.836;4.368;2023-03-01T00:42:41;7.68;;;5.95;;
35602;SDS011;21725;50.836;4.368;2023-03-01T00:45:42;11.00;;;6.57;;
35602;SDS011;21725;50.836;4.368;2023-03-01T00:48:43;9.70;;;7.00;;
35602;SDS011;21725;50.836;4.368;2023-03-01T00:51:44;9.02;;;7.00;;
35602;SDS011;21725;50.836;4.368;2023-03-01T00:54:45;16.95;;;7.03;;
35602;SDS011;21725;50.836;4.368;2023-03-01T00:57:46;10.20;;;6.50;;
35602;SDS011;21725;50.836;4.368;2023-03-01T01:00:47;12.77;;;7.13;;
35602;SDS011;21725;50.836;4.368;2023-03-01T01:03:51;15.13;;;7.18;;
35602;SDS011;21725;50.836;4.368;2023-03-01T01:07:12;11.15;;;7.45;;
35602;SDS011;21725;50.836;4.368;2023-03-01T01:10:13;11.13;;;6.90;;
35602;SDS011;21725;50.836;4.368;2023-03-01T01:13:16;11.55;;;6.97;;
35602;SDS011;21725;50.836;4.368;2023-03-01T01:16:20;11.13;;;6.93;;
35602;SDS011;21725;50.836;4.368;2023-03-01T01:19:22;10.05;;;7.10;;
35602;SDS011;21725;50.836;4.368;2023-03-01T01:22:23;10.57;;;6.78;;
35602;SDS011;21725;50.836;4.368;2023-03-01T01:25:25;14.50;;;7.47;;
35602;SDS011;21725;50.836;4.368;2023-03-01T01:28:26;10.02;;;6.78;;
35602;SDS011;21725;50.836;4.368;2023-03-01T01:31:27;10.02;;;6.88;;
35602;SDS011;21725;50.836;4.368;2023-03-01T01:34:28;11.05;;;7.30;;
35602;SDS011;21725;50.836;4.368;2023-03-01T01:37:29;11.38;;;7.57;;
35602;SDS011;21725;50.836;4.368;2023-03-01T01:40:33;11.98;;;6.20;;
35602;SDS011;21725;50.836;4.368;2023-03-01T01:43:35;11.05;;;7.13;;
35602;SDS011;21725;50.836;4.368;2023-03-01T01:46:41;14.40;;;7.13;;
35602;SDS011;21725;50.836;4.368;2023-03-01T01:49:45;10.77;;;7.32;;
35602;SDS011;21725;50.836;4.368;2023-03-01T01:52:48;12.63;;;7.47;;
35602;SDS011;21725;50.836;4.368;2023-03-01T01:55:53;16.10;;;7.53;;
35602;SDS011;21725;50.836;4.368;2023-03-01T01:58:57;14.82;;;7.60;;
35602;SDS011;21725;50.836;4.368;2023-03-01T02:01:59;8.95;;;6.65;;
35602;SDS011;21725;50.836;4.368;2023-03-01T02:05:04;9.68;;;7.30;;
35602;SDS011;21725;50.836;4.368;2023-03-01T02:08:13;11.70;;;6.97;;
35602;SDS011;21725;50.836;4.368;2023-03-01T02:11:16;9.95;;;6.93;;
35602;SDS011;21725;50.836;4.368;2023-03-01T02:14:18;10.95;;;6.82;;
35602;SDS011;21725;50.836;4.368;2023-03-01T02:17:19;9.73;;;7.43;;
35602;SDS011;21725;50.836;4.368;2023-03-01T02:23:52;13.90;;;7.63;;
35602;SDS011;21725;50.836;4.368;2023-03-01T02:26:55;9.48;;;7.30;;
35602;SDS011;21725;50.836;4.368;2023-03-01T02:29:57;11.10;;;7.22;;
35602;SDS011;21725;50.836;4.368;2023-03-01T02:32:58;15.07;;;7.95;;
35602;SDS011;21725;50.836;4.368;2023-03-01T02:36:07;11.80;;;6.57;;
35602;SDS011;21725;50.836;4.368;2023-03-01T02:39:18;11.77;;;7.78;;
35602;SDS011;21725;50.836;4.368;2023-03-01T02:42:26;11.18;;;6.88;;
35602;SDS011;21725;50.836;4.368;2023-03-01T02:45:31;10.48;;;7.25;;
35602;SDS011;21725;50.836;4.368;2023-03-01T02:48:42;13.65;;;7.82;;
35602;SDS011;21725;50.836;4.368;2023-03-01T02:55:15;12.75;;;7.50;;
35602;SDS011;21725;50.836;4.368;2023-03-01T02:58:17;11.57;;;7.65;;
35602;SDS011;21725;50.836;4.368;2023-03-01T03:01:18;17.35;;;6.80;;
35602;SDS011;21725;50.836;4.368;2023-03-01T03:04:20;13.95;;;7.50;;
35602;SDS011;21725;50.836;4.368;2023-03-01T03:07:21;11.52;;;7.38;;
35602;SDS011;21725;50.836;4.368;2023-03-01T03:10:23;9.15;;;6.07;;
35602;SDS011;21725;50.836;4.368;2023-03-01T03:13:25;11.35;;;6.93;;
35602;SDS011;21725;50.836;4.368;2023-03-01T03:16:28;13.45;;;8.15;;
35602;SDS011;21725;50.836;4.368;2023-03-01T03:19:29;10.98;;;7.70;;
35602;SDS011;21725;50.836;4.368;2023-03-01T03:22:30;13.13;;;7.70;;
35602;SDS011;21725;50.836;4.368;2023-03-01T03:25:31;13.38;;;8.38;;
35602;SDS011;21725;50.836;4.368;2023-03-01T03:28:32;11.43;;;7.60;;
35602;SDS011;21725;50.836;4.368;2023-03-01T03:31:34;8.80;;;6.60;;
35602;SDS011;21725;50.836;4.368;2023-03-01T03:34:35;11.23;;;7.53;;
35602;SDS011;21725;50.836;4.368;2023-03-01T03:37:37;9.18;;;7.28;;
35602;SDS011;21725;50.836;4.368;2023-03-01T03:41:03;13.02;;;7.57;;
35602;SDS011;21725;50.836;4.368;2023-03-01T03:44:05;11.95;;;7.28;;
35602;SDS011;21725;50.836;4.368;2023-03-01T03:47:06;12.68;;;7.57;;
35602;SDS011;21725;50.836;4.368;2023-03-01T03:50:06;10.07;;;6.95;;
35602;SDS011;21725;50.836;4.368;2023-03-01T03:53:10;13.18;;;8.40;;
35602;SDS011;21725;50.836;4.368;2023-03-01T03:56:12;12.10;;;8.25;;
35602;SDS011;21725;50.836;4.368;2023-03-01T03:59:12;12.95;;;7.97;;
35602;SDS011;21725;50.836;4.368;2023-03-01T04:02:13;11.95;;;8.20;;
35602;SDS011;21725;50.836;4.368;2023-03-01T04:05:22;10.75;;;7.07;;
35602;SDS011;21725;50.836;4.368;2023-03-01T04:08:23;11.27;;;7.28;;
35602;SDS011;21725;50.836;4.368;2023-03-01T04:11:24;11.75;;;7.93;;
35602;SDS011;21725;50.836;4.368;2023-03-01T04:14:27;12.27;;;8.20;;
35602;SDS011;21725;50.836;4.368;2023-03-01T04:17:28;12.38;;;8.15;;
35602;SDS011;21725;50.836;4.368;2023-03-01T04:20:29;12.65;;;7.22;;
35602;SDS011;21725;50.836;4.368;2023-03-01T04:23:33;12.65;;;7.55;;
35602;SDS011;21725;50.836;4.368;2023-03-01T04:26:35;10.95;;;7.35;;
35602;SDS011;21725;50.836;4.368;2023-03-01T04:29:35;12.43;;;7.47;;
35602;SDS011;21725;50.836;4.368;2023-03-01T04:32:36;10.23;;;6.80;;
35602;SDS011;21725;50.836;4.368;2023-03-01T04:35:37;12.07;;;7.95;;
35602;SDS011;21725;50.836;4.368;2023-03-01T04:38:39;16.45;;;8.38;;
35602;SDS011;21725;50.836;4.368;2023-03-01T04:41:41;12.85;;;8.18;;
35602;SDS011;21725;50.836;4.368;2023-03-01T04:44:43;15.93;;;8.85;;
35602;SDS011;21725;50.836;4.368;2023-03-01T04:47:45;13.50;;;8.20;;
35602;SDS011;21725;50.836;4.368;2023-03-01T04:50:46;11.75;;;8.00;;
35602;SDS011;21725;50.836;4.368;2023-03-01T04:53:47;11.68;;;7.95;;
35602;SDS011;21725;50.836;4.368;2023-03-01T04:56:48;9.95;;;7.65;;
35602;SDS011;21725;50.836;4.368;2023-03-01T04:59:49;11.00;;;6.50;;
35602;SDS011;21725;50.836;4.368;2023-03-01T05:24:40;13.70;;;9.10;;
35602;SDS011;21725;50.836;4.368;2023-03-01T05:27:41;12.73;;;9.10;;
35602;SDS011;21725;50.836;4.368;2023-03-01T05:30:42;12.95;;;7.05;;
35602;SDS011;21725;50.836;4.368;2023-03-01T05:33:43;12.95;;;8.88;;
35602;SDS011;21725;50.836;4.368;2023-03-01T05:36:44;13.90;;;8.38;;
35602;SDS011;21725;50.836;4.368;2023-03-01T05:39:44;16.00;;;8.50;;
35602;SDS011;21725;50.836;4.368;2023-03-01T05:42:46;18.10;;;9.43;;
35602;SDS011;21725;50.836;4.368;2023-03-01T05:45:54;10.25;;;6.38;;
35602;SDS011;21725;50.836;4.368;2023-03-01T05:48:57;12.63;;;7.47;;
35602;SDS011;21725;50.836;4.368;2023-03-01T05:51:58;22.77;;;9.10;;
35602;SDS011;21725;50.836;4.368;2023-03-01T05:54:59;13.63;;;8.98;;
35602;SDS011;21725;50.836;4.368;2023-03-01T05:58:00;12.45;;;8.60;;
35602;SDS011;21725;50.836;4.368;2023-03-01T06:01:02;15.23;;;8.73;;
35602;SDS011;21725;50.836;4.368;2023-03-01T06:04:03;12.73;;;8.73;;
35602;SDS011;21725;50.836;4.368;2023-03-01T06:07:06;13.35;;;9.05;;
35602;SDS011;21725;50.836;4.368;2023-03-01T06:10:07;14.55;;;9.02;;
35602;SDS011;21725;50.836;4.368;2023-03-01T06:13:09;11.55;;;7.85;;
35602;SDS011;21725;50.836;4.368;2023-03-01T06:16:10;11.73;;;8.07;;
35602;SDS011;21725;50.836;4.368;2023-03-01T06:19:11;11.73;;;7.93;;
35602;SDS011;21725;50.836;4.368;2023-03-01T06:22:11;12.25;;;8.02;;
35602;SDS011;21725;50.836;4.368;2023-03-01T06:25:14;14.65;;;7.97;;
35602;SDS011;21725;50.836;4.368;2023-03-01T06:28:20;12.88;;;7.63;;
35602;SDS011;21725;50.836;4.368;2023-03-01T06:31:21;18.45;;;8.73;;
35602;SDS011;21725;50.836;4.368;2023-03-01T06:34:22;9.85;;;6.72;;
35602;SDS011;21725;50.836;4.368;2023-03-01T06:37:22;11.70;;;7.03;;
35602;SDS011;21725;50.836;4.368;2023-03-01T06:40:23;12.32;;;8.10;;
35602;SDS011;21725;50.836;4.368;2023-03-01T06:43:25;17.35;;;8.82;;
35602;SDS011;21725;50.836;4.368;2023-03-01T06:46:26;13.05;;;8.15;;
35602;SDS011;21725;50.836;4.368;2023-03-01T06:49:26;23.90;;;9.40;;
35602;SDS011;21725;50.836;4.368;2023-03-01T06:52:27;13.63;;;8.32;;
35602;SDS011;21725;50.836;4.368;2023-03-01T06:55:28;10.82;;;7.25;;
35602;SDS011;21725;50.836;4.368;2023-03-01T06:58:28;12.38;;;8.07;;
35602;SDS011;21725;50.836;4.368;2023-03-01T07:01:29;15.50;;;9.77;;
35602;SDS011;21725;50.836;4.368;2023-03-01T07:04:31;14.73;;;8.93;;
35602;SDS011;21725;50.836;4.368;2023-03-01T07:07:32;14.80;;;8.10;;
35602;SDS011;21725;50.836;4.368;2023-03-01T07:10:33;14.32;;;8.63;;
35602;SDS011;21725;50.836;4.368;2023-03-01T07:13:33;15.05;;;8.07;;
35602;SDS011;21725;50.836;4.368;2023-03-01T07:16:34;12.15;;;8.93;;
35602;SDS011;21725;50.836;4.368;2023-03-01T07:19:35;13.25;;;9.13;;
35602;SDS011;21725;50.836;4.368;2023-03-01T07:22:36;28.10;;;10.23;;
35602;SDS011;21725;50.836;4.368;2023-03-01T07:25:39;18.92;;;8.13;;
35602;SDS011;21725;50.836;4.368;2023-03-01T07:28:39;11.70;;;8.15;;
35602;SDS011;21725;50.836;4.368;2023-03-01T07:31:40;12.18;;;7.93;;
35602;SDS011;21725;50.836;4.368;2023-03-01T07:34:41;12.57;;;8.27;;
35602;SDS011;21725;50.836;4.368;2023-03-01T07:37:42;16.38;;;8.88;;
35602;SDS011;21725;50.836;4.368;2023-03-01T07:40:43;11.77;;;7.75;;
35602;SDS011;21725;50.836;4.368;2023-03-01T07:43:43;14.57;;;8.57;;
35602;SDS011;21725;50.836;4.368;2023-03-01T07:46:44;12.63;;;8.45;;
35602;SDS011;21725;50.836;4.368;2023-03-01T07:49:45;13.05;;;8.30;;
35602;SDS011;21725;50.836;4.368;2023-03-01T07:52:46;15.57;;;8.38;;
35602;SDS011;21725;50.836;4.368;2023-03-01T07:55:48;15.93;;;9.10;;
35602;SDS011;21725;50.836;4.368;2023-03-01T07:58:48;17.63;;;8.25;;
35602;SDS011;21725;50.836;4.368;2023-03-01T08:01:49;17.05;;;8.38;;
35602;SDS011;21725;50.836;4.368;2023-03-01T08:04:50;17.27;;;8.07;;
35602;SDS011;21725;50.836;4.368;2023-03-01T08:07:50;15.63;;;8.80;;
35602;SDS011;21725;50.836;4.368;2023-03-01T08:10:51;13.27;;;8.05;;
35602;SDS011;21725;50.836;4.368;2023-03-01T08:13:52;31.52;;;10.27;;
35602;SDS011;21725;50.836;4.368;2023-03-01T08:16:53;24.60;;;10.32;;
35602;SDS011;21725;50.836;4.368;2023-03-01T08:19:54;20.13;;;8.98;;
35602;SDS011;21725;50.836;4.368;2023-03-01T08:22:57;12.35;;;7.95;;
35602;SDS011;21725;50.836;4.368;2023-03-01T08:26:05;12.57;;;8.55;;
35602;SDS011;21725;50.836;4.368;2023-03-01T08:29:07;23.40;;;10.70;;
35602;SDS011;21725;50.836;4.368;2023-03-01T08:32:08;16.30;;;8.60;;
35602;SDS011;21725;50.836;4.368;2023-03-01T08:35:09;16.45;;;9.77;;
35602;SDS011;21725;50.836;4.368;2023-03-01T08:38:09;15.00;;;8.77;;
35602;SDS011;21725;50.836;4.368;2023-03-01T08:41:10;26.50;;;9.60;;
35602;SDS011;21725;50.836;4.368;2023-03-01T08:44:11;18.65;;;8.70;;
35602;SDS011;21725;50.836;4.368;2023-03-01T08:47:13;14.23;;;8.82;;
35602;SDS011;21725;50.836;4.368;2023-03-01T08:50:14;20.27;;;10.25;;
35602;SDS011;21725;50.836;4.368;2023-03-01T08:53:15;12.70;;;8.27;;
35602;SDS011;21725;50.836;4.368;2023-03-01T08:56:16;16.40;;;7.90;;
35602;SDS011;21725;50.836;4.368;2023-03-01T08:59:18;17.08;;;10.50;;
35602;SDS011;21725;50.836;4.368;2023-03-01T09:02:19;17.67;;;9.95;;
35602;SDS011;21725;50.836;4.368;2023-03-01T09:05:20;16.42;;;10.18;;
35602;SDS011;21725;50.836;4.368;2023-03-01T09:08:21;17.45;;;9.88;;
35602;SDS011;21725;50.836;4.368;2023-03-01T09:11:22;15.38;;;9.40;;
35602;SDS011;21725;50.836;4.368;2023-03-01T09:14:22;32.38;;;14.25;;
35602;SDS011;21725;50.836;4.368;2023-03-01T09:17:23;19.05;;;9.70;;
35602;SDS011;21725;50.836;4.368;2023-03-01T09:20:24;14.10;;;9.15;;
35602;SDS011;21725;50.836;4.368;2023-03-01T09:23:24;28.13;;;10.30;;
35602;SDS011;21725;50.836;4.368;2023-03-01T09:26:25;14.02;;;8.70;;
35602;SDS011;21725;50.836;4.368;2023-03-01T09:29:26;15.52;;;9.85;;
35602;SDS011;21725;50.836;4.368;2023-03-01T09:32:27;16.30;;;10.45;;
35602;SDS011;21725;50.836;4.368;2023-03-01T09:35:30;16.67;;;9.23;;
35602;SDS011;21725;50.836;4.368;2023-03-01T09:38:31;16.10;;;10.40;;
35602;SDS011;21725;50.836;4.368;2023-03-01T09:41:38;14.35;;;8.73;;
35602;SDS011;21725;50.836;4.368;2023-03-01T09:45:04;12.63;;;8.05;;
35602;SDS011;21725;50.836;4.368;2023-03-01T09:48:09;15.63;;;10.48;;
35602;SDS011;21725;50.836;4.368;2023-03-01T09:51:22;14.80;;;9.38;;
35602;SDS011;21725;50.836;4.368;2023-03-01T09:54:31;16.85;;;8.95;;
35602;SDS011;21725;50.836;4.368;2023-03-01T10:00:50;14.23;;;9.57;;
35602;SDS011;21725;50.836;4.368;2023-03-01T10:10:16;14.35;;;9.30;;
35602;SDS011;21725;50.836;4.368;2023-03-01T10:19:45;15.52;;;10.63;;
35602;SDS011;21725;50.836;4.368;2023-03-01T10:22:47;14.07;;;9.30;;
35602;SDS011;21725;50.836;4.368;2023-03-01T10:29:12;13.03;;;9.50;;
35602;SDS011;21725;50.836;4.368;2023-03-01T10:32:13;15.82;;;9.35;;
35602;SDS011;21725;50.836;4.368;2023-03-01T10:35:16;14.70;;;9.63;;
35602;SDS011;21725;50.836;4.368;2023-03-01T10:38:17;29.20;;;15.52;;
35602;SDS011;21725;50.836;4.368;2023-03-01T10:41:23;12.02;;;8.32;;
35602;SDS011;21725;50.836;4.368;2023-03-01T10:44:43;13.88;;;8.63;;
35602;SDS011;21725;50.836;4.368;2023-03-01T10:47:47;12.77;;;9.38;;
35602;SDS011;21725;50.836;4.368;2023-03-01T10:51:06;16.33;;;9.70;;
35602;SDS011;21725;50.836;4.368;2023-03-01T10:57:28;15.63;;;9.52;;
35602;SDS011;21725;50.836;4.368;2023-03-01T11:22:32;13.05;;;10.23;;
35602;SDS011;21725;50.836;4.368;2023-03-01T11:25:35;13.57;;;9.23;;
35602;SDS011;21725;50.836;4.368;2023-03-01T11:28:41;14.93;;;8.85;;
35602;SDS011;21725;50.836;4.368;2023-03-01T11:31:44;14.27;;;9.02;;
35602;SDS011;21725;50.836;4.368;2023-03-01T11:34:51;13.23;;;8.15;;
35602;SDS011;21725;50.836;4.368;2023-03-01T11:38:03;12.38;;;8.32;;
35602;SDS011;21725;50.836;4.368;2023-03-01T11:41:17;16.05;;;9.48;;
35602;SDS011;21725;50.836;4.368;2023-03-01T11:44:25;13.23;;;9.57;;
35602;SDS011;21725;50.836;4.368;2023-03-01T11:47:38;12.75;;;7.80;;
35602;SDS011;21725;50.836;4.368;2023-03-01T11:50:47;10.70;;;7.75;;
35602;SDS011;21725;50.836;4.368;2023-03-01T11:57:13;14.02;;;8.73;;
35602;SDS011;21725;50.836;4.368;2023-03-01T12:00:41;12.00;;;7.85;;
35602;SDS011;21725;50.836;4.368;2023-03-01T12:17:32;12.85;;;8.73;;
35602;SDS011;21725;50.836;4.368;2023-03-01T12:35:11;12.52;;;7.80;;
35602;SDS011;21725;50.836;4.368;2023-03-01T12:38:40;11.65;;;7.50;;
35602;SDS011;21725;50.836;4.368;2023-03-01T12:48:38;12.18;;;7.63;;
35602;SDS011;21725;50.836;4.368;2023-03-01T12:51:42;11.88;;;7.25;;
35602;SDS011;21725;50.836;4.368;2023-03-01T12:54:51;12.82;;;7.55;;
35602;SDS011;21725;50.836;4.368;2023-03-01T13:07:41;12.23;;;7.63;;
35602;SDS011;21725;50.836;4.368;2023-03-01T13:10:56;10.70;;;7.85;;
35602;SDS011;21725;50.836;4.368;2023-03-01T13:23:43;12.00;;;7.55;;
35602;SDS011;21725;50.836;4.368;2023-03-01T13:27:22;11.68;;;7.75;;
35602;SDS011;21725;50.836;4.368;2023-03-01T13:36:50;10.68;;;7.70;;
35602;SDS011;21725;50.836;4.368;2023-03-01T13:39:51;12.35;;;7.55;;
35602;SDS011;21725;50.836;4.368;2023-03-01T13:42:53;12.23;;;7.90;;
35602;SDS011;21725;50.836;4.368;2023-03-01T13:45:54;11.88;;;7.88;;
35602;SDS011;21725;50.836;4.368;2023-03-01T13:48:56;11.38;;;7.65;;
35602;SDS011;21725;50.836;4.368;2023-03-01T13:51:57;12.25;;;7.88;;
35602;SDS011;21725;50.836;4.368;2023-03-01T13:54:58;10.20;;;7.10;;
35602;SDS011;21725;50.836;4.368;2023-03-01T13:58:03;18.17;;;8.43;;
35602;SDS011;21725;50.836;4.368;2023-03-01T14:01:34;11.40;;;7.57;;
35602;SDS011;21725;50.836;4.368;2023-03-01T14:04:35;12.00;;;8.77;;
35602;SDS011;21725;50.836;4.368;2023-03-01T14:07:37;10.55;;;7.38;;
35602;SDS011;21725;50.836;4.368;2023-03-01T14:10:47;11.98;;;7.75;;
35602;SDS011;21725;50.836;4.368;2023-03-01T14:14:08;11.15;;;7.63;;
35602;SDS011;21725;50.836;4.368;2023-03-01T14:17:46;12.52;;;7.97;;
35602;SDS011;21725;50.836;4.368;2023-03-01T14:20:49;11.77;;;7.63;;
35602;SDS011;21725;50.836;4.368;2023-03-01T14:23:51;12.52;;;8.73;;
35602;SDS011;21725;50.836;4.368;2023-03-01T14:26:53;11.23;;;7.57;;
35602;SDS011;21725;50.836;4.368;2023-03-01T14:29:54;15.57;;;7.97;;
35602;SDS011;21725;50.836;4.368;2023-03-01T14:32:59;10.13;;;7.60;;
35602;SDS011;21725;50.836;4.368;2023-03-01T14:36:02;12.75;;;7.80;;
35602;SDS011;21725;50.836;4.368;2023-03-01T14:39:15;12.38;;;8.05;;
35602;SDS011;21725;50.836;4.368;2023-03-01T14:42:21;10.15;;;7.07;;
35602;SDS011;21725;50.836;4.368;2023-03-01T14:45:25;11.57;;;8.43;;
35602;SDS011;21725;50.836;4.368;2023-03-01T14:48:29;13.45;;;7.78;;
35602;SDS011;21725;50.836;4.368;2023-03-01T14:51:34;19.58;;;8.57;;
35602;SDS011;21725;50.836;4.368;2023-03-01T14:54:41;11.07;;;8.48;;
35602;SDS011;21725;50.836;4.368;2023-03-01T14:57:46;12.32;;;8.60;;
35602;SDS011;21725;50.836;4.368;2023-03-01T15:00:58;12.73;;;9.25;;
35602;SDS011;21725;50.836;4.368;2023-03-01T15:04:00;10.90;;;7.72;;
35602;SDS011;21725;50.836;4.368;2023-03-01T15:07:02;13.50;;;9.40;;
35602;SDS011;21725;50.836;4.368;2023-03-01T15:10:05;10.68;;;7.63;;
35602;SDS011;21725;50.836;4.368;2023-03-01T15:16:31;14.82;;;8.55;;
35602;SDS011;21725;50.836;4.368;2023-03-01T15:19:34;11.68;;;7.78;;
35602;SDS011;21725;50.836;4.368;2023-03-01T15:22:35;11.63;;;8.10;;
35602;SDS011;21725;50.836;4.368;2023-03-01T15:25:36;15.50;;;8.40;;
35602;SDS011;21725;50.836;4.368;2023-03-01T15:28:41;9.90;;;7.35;;
35602;SDS011;21725;50.836;4.368;2023-03-01T15:31:57;11.38;;;7.50;;
35602;SDS011;21725;50.836;4.368;2023-03-01T15:35:00;13.10;;;6.95;;
35602;SDS011;21725;50.836;4.368;2023-03-01T15:41:48;11.77;;;8.02;;
35602;SDS011;21725;50.836;4.368;2023-03-01T15:44:49;12.25;;;8.07;;
35602;SDS011;21725;50.836;4.368;2023-03-01T15:47:50;12.32;;;8.65;;
35602;SDS011;21725;50.836;4.368;2023-03-01T15:51:17;12.00;;;8.18;;
35602;SDS011;21725;50.836;4.368;2023-03-01T15:54:23;11.60;;;7.63;;
35602;SDS011;21725;50.836;4.368;2023-03-01T15:57:26;11.65;;;6.45;;
35602;SDS011;21725;50.836;4.368;2023-03-01T16:00:30;12.40;;;7.35;;
35602;SDS011;21725;50.836;4.368;2023-03-01T16:03:31;16.25;;;7.72;;
35602;SDS011;21725;50.836;4.368;2023-03-01T16:06:32;12.80;;;7.22;;
35602;SDS011;21725;50.836;4.368;2023-03-01T16:09:33;16.80;;;8.50;;
35602;SDS011;21725;50.836;4.368;2023-03-01T16:12:33;13.60;;;7.95;;
35602;SDS011;21725;50.836;4.368;2023-03-01T16:15:34;9.55;;;6.85;;
35602;SDS011;21725;50.836;4.368;2023-03-01T16:18:35;13.10;;;7.10;;
35602;SDS011;21725;50.836;4.368;2023-03-01T16:21:36;16.75;;;8.20;;
35602;SDS011;21725;50.836;4.368;2023-03-01T16:24:37;13.90;;;7.63;;
35602;SDS011;21725;50.836;4.368;2023-03-01T16:27:38;11.60;;;8.07;;
35602;SDS011;21725;50.836;4.368;2023-03-01T16:30:44;11.00;;;7.00;;
35602;SDS011;21725;50.836;4.368;2023-03-01T16:33:48;11.23;;;7.10;;
35602;SDS011;21725;50.836;4.368;2023-03-01T16:36:52;9.57;;;5.90;;
35602;SDS011;21725;50.836;4.368;2023-03-01T16:39:53;11.13;;;7.30;;
35602;SDS011;21725;50.836;4.368;2023-03-01T16:42:55;14.48;;;8.05;;
35602;SDS011;21725;50.836;4.368;2023-03-01T16:46:01;11.23;;;7.47;;
35602;SDS011;21725;50.836;4.368;2023-03-01T16:49:06;12.48;;;7.22;;
35602;SDS011;21725;50.836;4.368;2023-03-01T16:52:07;10.85;;;7.05;;
35602;SDS011;21725;50.836;4.368;2023-03-01T16:55:07;11.27;;;7.43;;
35602;SDS011;21725;50.836;4.368;2023-03-01T16:58:09;10.32;;;7.07;;
35602;SDS011;21725;50.836;4.368;2023-03-01T17:23:07;9.55;;;7.13;;
35602;SDS011;21725;50.836;4.368;2023-03-01T17:26:07;11.30;;;8.18;;
35602;SDS011;21725;50.836;4.368;2023-03-01T17:29:09;13.60;;;7.82;;
35602;SDS011;21725;50.836;4.368;2023-03-01T17:32:10;13.13;;;7.63;;
35602;SDS011;21725;50.836;4.368;2023-03-01T17:35:11;11.63;;;8.38;;
35602;SDS011;21725;50.836;4.368;2023-03-01T17:38:15;13.40;;;8.20;;
35602;SDS011;21725;50.836;4.368;2023-03-01T17:41:17;18.25;;;8.70;;
35602;SDS011;21725;50.836;4.368;2023-03-01T17:44:18;10.02;;;6.93;;
35602;SDS011;21725;50.836;4.368;2023-03-01T17:47:19;14.20;;;8.05;;
35602;SDS011;21725;50.836;4.368;2023-03-01T17:50:20;12.68;;;8.90;;
35602;SDS011;21725;50.836;4.368;2023-03-01T17:53:21;16.27;;;8.98;;
35602;SDS011;21725;50.836;4.368;2023-03-01T17:56:21;12.32;;;7.35;;
35602;SDS011;21725;50.836;4.368;2023-03-01T17:59:22;14.07;;;7.22;;
35602;SDS011;21725;50.836;4.368;2023-03-01T18:02:23;14.05;;;7.38;;
35602;SDS011;21725;50.836;4.368;2023-03-01T18:05:25;9.65;;;7.35;;
35602;SDS011;21725;50.836;4.368;2023-03-01T18:08:30;12.43;;;7.18;;
35602;SDS011;21725;50.836;4.368;2023-03-01T18:11:33;11.35;;;7.18;;
35602;SDS011;21725;50.836;4.368;2023-03-01T18:14:35;14.15;;;6.97;;
35602;SDS011;21725;50.836;4.368;2023-03-01T18:17:36;17.08;;;8.25;;
35602;SDS011;21725;50.836;4.368;2023-03-01T18:20:38;13.85;;;7.63;;
35602;SDS011;21725;50.836;4.368;2023-03-01T18:23:39;11.43;;;7.93;;
35602;SDS011;21725;50.836;4.368;2023-03-01T18:26:40;16.40;;;8.05;;
35602;SDS011;21725;50.836;4.368;2023-03-01T18:29:41;13.15;;;7.38;;
35602;SDS011;21725;50.836;4.368;2023-03-01T18:32:41;12.20;;;7.60;;
35602;SDS011;21725;50.836;4.368;2023-03-01T18:35:43;10.70;;;6.90;;
35602;SDS011;21725;50.836;4.368;2023-03-01T18:38:44;12.63;;;8.25;;
35602;SDS011;21725;50.836;4.368;2023-03-01T18:41:45;14.27;;;7.60;;
35602;SDS011;21725;50.836;4.368;2023-03-01T18:44:46;11.30;;;6.95;;
35602;SDS011;21725;50.836;4.368;2023-03-01T18:47:47;15.25;;;8.70;;
35602;SDS011;21725;50.836;4.368;2023-03-01T18:50:48;12.65;;;7.57;;
35602;SDS011;21725;50.836;4.368;2023-03-01T18:53:49;12.23;;;7.82;;
35602;SDS011;21725;50.836;4.368;2023-03-01T18:56:50;13.75;;;7.57;;
35602;SDS011;21725;50.836;4.368;2023-03-01T18:59:51;14.65;;;7.18;;
35602;SDS011;21725;50.836;4.368;2023-03-01T19:02:52;14.10;;;7.72;;
35602;SDS011;21725;50.836;4.368;2023-03-01T19:05:52;14.32;;;8.43;;
35602;SDS011;21725;50.836;4.368;2023-03-01T19:08:53;12.55;;;7.00;;
35602;SDS011;21725;50.836;4.368;2023-03-01T19:11:54;13.48;;;8.15;;
35602;SDS011;21725;50.836;4.368;2023-03-01T19:14:57;13.07;;;7.65;;
35602;SDS011;21725;50.836;4.368;2023-03-01T19:17:58;11.73;;;7.43;;
35602;SDS011;21725;50.836;4.368;2023-03-01T19:21:02;12.23;;;8.50;;
35602;SDS011;21725;50.836;4.368;2023-03-01T19:24:03;14.27;;;8.13;;
35602;SDS011;21725;50.836;4.368;2023-03-01T19:27:04;12.43;;;8.48;;
35602;SDS011;21725;50.836;4.368;2023-03-01T19:30:05;12.65;;;8.55;;
35602;SDS011;21725;50.836;4.368;2023-03-01T19:33:07;15.38;;;8.07;;
35602;SDS011;21725;50.836;4.368;2023-03-01T19:36:08;15.00;;;9.43;;
35602;SDS011;21725;50.836;4.368;2023-03-01T19:39:11;15.77;;;9.13;;
35602;SDS011;21725;50.836;4.368;2023-03-01T19:42:12;13.93;;;9.18;;
35602;SDS011;21725;50.836;4.368;2023-03-01T19:45:13;16.08;;;9.15;;
35602;SDS011;21725;50.836;4.368;2023-03-01T19:48:14;17.08;;;9.85;;
35602;SDS011;21725;50.836;4.368;2023-03-01T19:51:14;14.77;;;9.25;;
35602;SDS011;21725;50.836;4.368;2023-03-01T19:54:18;19.35;;;9.63;;
35602;SDS011;21725;50.836;4.368;2023-03-01T19:57:19;19.20;;;8.80;;
35602;SDS011;21725;50.836;4.368;2023-03-01T20:00:20;22.48;;;9.57;;
35602;SDS011;21725;50.836;4.368;2023-03-01T20:03:21;17.58;;;8.88;;
35602;SDS011;21725;50.836;4.368;2023-03-01T20:06:21;15.07;;;9.77;;
35602;SDS011;21725;50.836;4.368;2023-03-01T20:09:24;16.00;;;9.73;;
35602;SDS011;21725;50.836;4.368;2023-03-01T20:12:25;18.23;;;10.60;;
35602;SDS011;21725;50.836;4.368;2023-03-01T20:15:25;17.83;;;11.30;;
35602;SDS011;21725;50.836;4.368;2023-03-01T20:18:26;13.10;;;9.50;;
35602;SDS011;21725;50.836;4.368;2023-03-01T20:21:27;19.40;;;10.10;;
35602;SDS011;21725;50.836;4.368;2023-03-01T20:24:28;17.00;;;10.65;;
35602;SDS011;21725;50.836;4.368;2023-03-01T20:27:32;16.58;;;10.07;;
35602;SDS011;21725;50.836;4.368;2023-03-01T20:30:33;14.82;;;9.50;;
35602;SDS011;21725;50.836;4.368;2023-03-01T20:33:33;14.88;;;9.63;;
35602;SDS011;21725;50.836;4.368;2023-03-01T20:36:35;15.15;;;10.52;;
35602;SDS011;21725;50.836;4.368;2023-03-01T20:39:37;20.98;;;10.90;;
35602;SDS011;21725;50.836;4.368;2023-03-01T20:42:38;14.90;;;10.38;;
35602;SDS011;21725;50.836;4.368;2023-03-01T20:45:39;14.88;;;9.40;;
35602;SDS011;21725;50.836;4.368;2023-03-01T20:48:42;17.20;;;10.38;;
35602;SDS011;21725;50.836;4.368;2023-03-01T20:51:43;19.95;;;10.55;;